Time;durP1;ratioP1;P1;durP2;ratioP2;P2;SDS_P1;SDS_P2;PMS_P1;PMS_P2;Temp;Humidity;BMP_temperature;BMP_pressure;BME280_temperature;BME280_humidity;BME280_pressure;Samples;Min_cycle;Max_cycle;Signal;HPM_P1;HPM_P2
2021/05/08 00:01:38;;;;;;;11.00;7.67;;;6.30;99.90;;;;;;5064619;28;20295;-64
2021/05/08 00:04:06;;;;;;;9.30;7.40;;;6.30;99.90;;;;;;5063060;28;20234;-64
2021/05/08 00:06:34;;;;;;;9.33;7.63;;;6.40;99.90;;;;;;5065925;28;20283;-64
2021/05/08 00:09:06;;;;;;;8.17;7.13;;;6.40;99.90;;;;;;5068694;28;20667;-64
2021/05/08 00:11:34;;;;;;;11.50;7.60;;;6.40;99.90;;;;;;5064173;28;20249;-64
2021/05/08 00:14:02;;;;;;;14.53;8.27;;;6.40;99.90;;;;;;5066948;28;20263;-64
2021/05/08 00:16:30;;;;;;;18.37;8.47;;;6.40;99.90;;;;;;5062897;28;20192;-64
2021/05/08 00:18:58;;;;;;;11.20;7.67;;;6.40;99.90;;;;;;5064523;28;20324;-64
2021/05/08 00:21:25;;;;;;;10.47;7.70;;;6.50;99.90;;;;;;5065330;28;20279;-64
2021/05/08 00:23:52;;;;;;;12.07;7.40;;;6.50;99.90;;;;;;5063474;28;20209;-64
2021/05/08 00:26:20;;;;;;;13.67;7.93;;;6.50;99.90;;;;;;5061074;28;20199;-64
2021/05/08 00:28:48;;;;;;;11.63;7.63;;;6.50;99.90;;;;;;5067387;28;20195;-64
2021/05/08 00:31:16;;;;;;;10.47;7.73;;;6.50;99.90;;;;;;5058543;28;20208;-64
2021/05/08 00:33:43;;;;;;;11.63;7.60;;;6.60;99.90;;;;;;5064636;28;20191;-64
2021/05/08 00:36:11;;;;;;;13.90;7.90;;;6.70;99.90;;;;;;5057939;28;20188;-64
2021/05/08 00:38:38;;;;;;;12.13;7.50;;;6.80;99.90;;;;;;5067518;28;20184;-64
2021/05/08 00:41:06;;;;;;;12.63;8.47;;;6.90;99.90;;;;;;5063674;28;20318;-65
2021/05/08 00:43:34;;;;;;;12.93;7.67;;;6.90;99.90;;;;;;5067169;28;20646;-64
2021/05/08 00:46:03;;;;;;;12.40;8.17;;;6.90;99.90;;;;;;5065134;28;20573;-64
2021/05/08 00:48:33;;;;;;;11.03;8.17;;;6.90;99.90;;;;;;5060640;28;20250;-65
2021/05/08 00:51:00;;;;;;;8.87;7.93;;;7.00;99.90;;;;;;5052431;28;20274;-64
2021/05/08 00:53:28;;;;;;;13.37;7.80;;;7.00;99.90;;;;;;5066444;28;20191;-64
2021/05/08 00:55:55;;;;;;;12.50;8.13;;;7.10;99.90;;;;;;5081556;28;20287;-64
2021/05/08 00:58:24;;;;;;;10.30;8.00;;;7.00;99.90;;;;;;5066709;28;20224;-64
2021/05/08 01:00:54;;;;;;;12.57;8.37;;;7.10;99.90;;;;;;5062129;28;20295;-64
2021/05/08 01:03:23;;;;;;;11.87;8.07;;;7.10;99.90;;;;;;5064900;28;20204;-64
2021/05/08 01:05:50;;;;;;;10.63;7.80;;;7.10;99.90;;;;;;5063714;28;20265;-64
2021/05/08 01:08:18;;;;;;;10.37;8.03;;;7.10;99.90;;;;;;5063932;28;20200;-64
2021/05/08 01:10:46;;;;;;;12.73;8.70;;;7.10;99.90;;;;;;5066557;28;20246;-64
2021/05/08 01:13:13;;;;;;;13.00;8.27;;;7.20;99.90;;;;;;5083160;28;20191;-65
2021/05/08 01:15:41;;;;;;;10.90;8.03;;;7.20;99.90;;;;;;5069386;28;20551;-64
2021/05/08 01:18:09;;;;;;;12.10;8.30;;;7.20;99.90;;;;;;5070800;28;20235;-64
2021/05/08 01:20:40;;;;;;;10.63;7.80;;;7.20;99.90;;;;;;5067474;28;20234;-64
2021/05/08 01:23:09;;;;;;;10.00;8.43;;;7.30;99.90;;;;;;5058723;28;20754;-64
2021/05/08 01:25:36;;;;;;;14.93;8.97;;;7.30;99.90;;;;;;5066605;28;20283;-64
2021/05/08 01:28:04;;;;;;;10.97;8.73;;;7.30;99.90;;;;;;5071036;28;20204;-64
2021/05/08 01:30:33;;;;;;;9.97;8.83;;;7.20;99.90;;;;;;5068019;28;20195;-65
2021/05/08 01:33:01;;;;;;;15.17;9.17;;;7.20;99.90;;;;;;5075692;28;20187;-64
2021/05/08 01:35:29;;;;;;;12.80;8.37;;;7.20;99.90;;;;;;5065194;28;20222;-64
2021/05/08 01:37:59;;;;;;;10.20;8.33;;;7.20;99.90;;;;;;5075589;28;20196;-64
2021/05/08 01:40:29;;;;;;;12.57;9.17;;;7.20;99.90;;;;;;5074628;28;20216;-64
2021/05/08 01:42:57;;;;;;;10.13;8.20;;;7.20;99.90;;;;;;5061978;28;20224;-65
2021/05/08 01:45:26;;;;;;;12.30;8.57;;;7.10;99.90;;;;;;5070431;28;20219;-64
2021/05/08 01:47:57;;;;;;;15.63;9.73;;;7.10;99.90;;;;;;5066140;28;20199;-64
2021/05/08 01:50:26;;;;;;;13.20;9.17;;;7.00;99.90;;;;;;5060194;28;20710;-65
2021/05/08 01:52:54;;;;;;;16.27;9.03;;;7.00;99.90;;;;;;5070057;28;20294;-64
2021/05/08 01:55:23;;;;;;;13.67;9.17;;;7.00;99.90;;;;;;5069574;28;20195;-64
2021/05/08 01:57:52;;;;;;;10.93;8.63;;;7.00;99.90;;;;;;5066029;28;20200;-64
2021/05/08 02:00:22;;;;;;;12.10;9.07;;;7.00;99.90;;;;;;5065311;28;20287;-64
2021/05/08 02:02:51;;;;;;;12.53;8.90;;;7.00;99.90;;;;;;5065009;28;20215;-64
2021/05/08 02:05:19;;;;;;;12.63;9.07;;;7.00;99.90;;;;;;5068838;28;20249;-64
2021/05/08 02:07:46;;;;;;;12.80;9.40;;;7.00;99.90;;;;;;5062225;28;20197;-64
2021/05/08 02:10:15;;;;;;;10.30;8.67;;;7.00;99.90;;;;;;5073686;28;20192;-64
2021/05/08 02:12:42;;;;;;;12.23;9.17;;;7.00;99.90;;;;;;5073292;28;20265;-64
2021/05/08 02:15:12;;;;;;;12.23;9.20;;;7.00;99.90;;;;;;5066879;28;20282;-64
2021/05/08 02:17:40;;;;;;;12.90;9.30;;;7.00;99.90;;;;;;5063185;28;20315;-64
2021/05/08 02:20:10;;;;;;;11.33;8.97;;;7.00;99.90;;;;;;5066275;28;20188;-63
2021/05/08 02:22:37;;;;;;;16.17;10.03;;;7.00;99.90;;;;;;5065581;28;20292;-64
2021/05/08 02:25:07;;;;;;;11.43;8.87;;;7.10;99.90;;;;;;5065766;28;20196;-64
2021/05/08 02:27:34;;;;;;;12.77;9.33;;;7.10;99.90;;;;;;5066251;28;20196;-64
2021/05/08 02:30:04;;;;;;;13.07;9.43;;;7.10;99.90;;;;;;5061943;28;20235;-64
2021/05/08 02:32:32;;;;;;;14.63;10.10;;;7.10;99.90;;;;;;5065825;28;20300;-64
2021/05/08 02:35:00;;;;;;;16.03;9.70;;;7.20;99.90;;;;;;5076276;28;20503;-64
2021/05/08 02:37:28;;;;;;;17.13;9.53;;;7.20;99.90;;;;;;5069021;28;20199;-64
2021/05/08 02:39:55;;;;;;;14.30;9.40;;;7.20;99.90;;;;;;5067784;28;20694;-64
2021/05/08 02:42:23;;;;;;;11.63;8.80;;;7.30;99.90;;;;;;5069207;28;20188;-64
2021/05/08 02:44:51;;;;;;;14.73;9.10;;;7.20;99.90;;;;;;5068727;28;20214;-64
2021/05/08 02:47:19;;;;;;;12.07;9.13;;;7.20;99.90;;;;;;5066869;28;20694;-65
2021/05/08 02:49:48;;;;;;;12.83;9.13;;;7.20;99.90;;;;;;5066087;28;20204;-64
2021/05/08 02:52:16;;;;;;;9.93;8.37;;;7.10;99.90;;;;;;5069525;28;20222;-64
2021/05/08 02:54:44;;;;;;;13.90;9.57;;;7.20;99.90;;;;;;5069527;28;20243;-64
2021/05/08 02:57:11;;;;;;;11.87;8.63;;;7.20;99.90;;;;;;5067906;28;20231;-64
2021/05/08 02:59:38;;;;;;;11.73;9.17;;;7.20;99.90;;;;;;5065315;28;20269;-65
2021/05/08 03:02:06;;;;;;;11.93;9.27;;;7.10;99.90;;;;;;5066770;28;20249;-64
2021/05/08 03:04:34;;;;;;;11.17;9.07;;;7.00;99.90;;;;;;5068859;28;20562;-64
2021/05/08 03:07:02;;;;;;;12.37;8.83;;;7.00;99.90;;;;;;5069495;28;20223;-64
2021/05/08 03:09:31;;;;;;;11.27;8.50;;;7.00;99.90;;;;;;5068192;28;20679;-64
2021/05/08 03:12:02;;;;;;;12.40;8.70;;;7.10;99.90;;;;;;5074113;28;20257;-65
2021/05/08 03:14:29;;;;;;;14.67;8.97;;;7.10;99.90;;;;;;5073672;28;20282;-65
2021/05/08 03:17:04;;;;;;;14.53;8.87;;;7.10;99.90;;;;;;5060083;28;20190;-64
2021/05/08 03:19:35;;;;;;;10.23;8.30;;;7.10;99.90;;;;;;5066904;28;20192;-64
2021/05/08 03:22:04;;;;;;;11.47;8.80;;;7.00;99.90;;;;;;5061255;28;20188;-64
2021/05/08 03:24:32;;;;;;;11.80;8.30;;;7.00;99.90;;;;;;5064212;28;20223;-64
2021/05/08 03:27:00;;;;;;;12.10;8.30;;;7.10;99.90;;;;;;5065894;28;20279;-64
2021/05/08 03:29:28;;;;;;;12.20;8.43;;;7.10;99.90;;;;;;5068818;28;20217;-64
2021/05/08 03:31:55;;;;;;;12.93;8.37;;;7.10;99.90;;;;;;5064071;28;20196;-64
2021/05/08 03:34:23;;;;;;;10.53;7.83;;;7.10;99.90;;;;;;5072184;28;20184;-64
2021/05/08 03:36:51;;;;;;;12.70;8.40;;;7.10;99.90;;;;;;5067478;28;20241;-64
2021/05/08 03:39:19;;;;;;;11.50;7.80;;;7.10;99.90;;;;;;5071803;28;20252;-64
2021/05/08 03:41:47;;;;;;;10.73;8.37;;;7.10;99.90;;;;;;5069792;28;20203;-64
2021/05/08 03:44:14;;;;;;;16.40;8.00;;;7.10;99.90;;;;;;5070171;28;20211;-64
2021/05/08 03:46:42;;;;;;;9.90;7.53;;;7.10;99.90;;;;;;5066601;28;20637;-64
2021/05/08 03:49:09;;;;;;;14.47;8.37;;;7.20;99.90;;;;;;5063369;28;20196;-64
2021/05/08 03:51:37;;;;;;;10.20;7.73;;;7.20;99.90;;;;;;5063549;28;20199;-64
2021/05/08 03:54:05;;;;;;;10.67;7.60;;;7.20;99.90;;;;;;5063974;28;20192;-64
2021/05/08 03:56:33;;;;;;;10.60;7.73;;;7.20;99.90;;;;;;5067425;28;20685;-64
2021/05/08 03:59:01;;;;;;;9.43;7.47;;;7.20;99.90;;;;;;5067829;28;20245;-64
2021/05/08 04:01:28;;;;;;;9.23;7.27;;;7.20;99.90;;;;;;5056073;28;20287;-65
2021/05/08 04:03:55;;;;;;;9.63;7.17;;;7.20;99.90;;;;;;5063719;28;20210;-64
2021/05/08 04:06:23;;;;;;;8.37;6.67;;;7.30;99.90;;;;;;5062586;28;20254;-64
2021/05/08 04:08:50;;;;;;;8.27;6.60;;;7.40;99.90;;;;;;5066206;28;20191;-64
2021/05/08 04:11:17;;;;;;;10.70;7.53;;;7.40;99.90;;;;;;5067942;28;20630;-64
2021/05/08 04:13:46;;;;;;;9.90;6.60;;;7.50;99.90;;;;;;5073631;28;20494;-64
2021/05/08 04:16:13;;;;;;;12.30;6.50;;;7.50;99.90;;;;;;5048566;28;20249;-63
2021/05/08 04:18:41;;;;;;;7.73;6.47;;;7.50;99.90;;;;;;5065518;28;20239;-65
2021/05/08 04:21:08;;;;;;;11.90;6.60;;;7.50;99.90;;;;;;5063340;28;20192;-64
2021/05/08 04:23:35;;;;;;;9.37;6.50;;;7.60;99.90;;;;;;5063701;28;20705;-65
2021/05/08 04:26:03;;;;;;;10.60;5.87;;;7.60;99.90;;;;;;5065420;28;20219;-64
2021/05/08 04:28:30;;;;;;;9.20;6.10;;;7.60;99.90;;;;;;5072864;28;20295;-64
2021/05/08 04:30:58;;;;;;;7.73;5.60;;;7.60;99.90;;;;;;5063740;28;20184;-64
2021/05/08 04:33:25;;;;;;;8.10;5.77;;;7.70;99.90;;;;;;5064471;28;20195;-65
2021/05/08 04:35:53;;;;;;;8.80;6.00;;;7.70;99.90;;;;;;5066776;28;20208;-65
2021/05/08 04:38:20;;;;;;;6.87;5.57;;;7.80;99.90;;;;;;5065070;28;20245;-64
2021/05/08 04:40:47;;;;;;;6.93;6.03;;;7.80;99.90;;;;;;5056718;28;20231;-65
2021/05/08 04:43:15;;;;;;;10.00;5.77;;;7.90;99.90;;;;;;5066756;28;20302;-63
2021/05/08 04:45:42;;;;;;;7.47;5.57;;;7.90;99.90;;;;;;5066486;28;20210;-64
2021/05/08 04:48:11;;;;;;;9.17;5.60;;;7.90;99.90;;;;;;5070268;28;20196;-66
2021/05/08 04:50:38;;;;;;;9.80;5.50;;;8.00;99.90;;;;;;5074548;28;20200;-65
2021/05/08 04:53:05;;;;;;;8.47;6.27;;;8.00;99.90;;;;;;5075696;28;20219;-65
2021/05/08 04:55:32;;;;;;;7.30;5.80;;;8.00;99.90;;;;;;5068540;28;20188;-65
2021/05/08 04:58:05;;;;;;;7.37;6.07;;;8.00;99.90;;;;;;5067063;28;20279;-64
2021/05/08 05:00:33;;;;;;;7.57;5.60;;;8.10;99.90;;;;;;5067875;28;20666;-64
2021/05/08 05:03:00;;;;;;;8.33;5.90;;;8.10;99.90;;;;;;5069945;28;20271;-65
2021/05/08 05:05:29;;;;;;;6.70;5.57;;;8.10;99.90;;;;;;5062520;28;20203;-65
2021/05/08 05:07:56;;;;;;;10.07;6.00;;;8.10;99.90;;;;;;5068730;28;20191;-65
2021/05/08 05:10:23;;;;;;;7.90;6.00;;;8.10;99.90;;;;;;5072337;28;20196;-65
2021/05/08 05:12:53;;;;;;;7.37;5.53;;;8.20;99.90;;;;;;5078453;28;20666;-65
2021/05/08 05:15:21;;;;;;;7.53;5.53;;;8.20;99.90;;;;;;5068954;28;20242;-64
2021/05/08 05:17:52;;;;;;;8.63;5.73;;;8.30;99.90;;;;;;5068818;28;20298;-65
2021/05/08 05:20:21;;;;;;;8.33;5.90;;;8.30;99.90;;;;;;5066612;28;20197;-64
2021/05/08 05:22:49;;;;;;;8.50;5.90;;;8.30;99.90;;;;;;5065729;28;20203;-65
2021/05/08 05:25:16;;;;;;;9.93;5.90;;;8.40;99.90;;;;;;5068621;28;20317;-64
2021/05/08 05:27:44;;;;;;;7.57;5.80;;;8.40;99.90;;;;;;5074150;28;20184;-65
2021/05/08 05:30:12;;;;;;;10.60;6.37;;;8.50;99.90;;;;;;5065545;28;20189;-65
2021/05/08 05:32:40;;;;;;;9.37;5.83;;;8.50;99.90;;;;;;5066163;28;20211;-64
2021/05/08 05:35:08;;;;;;;7.63;5.83;;;8.50;99.90;;;;;;5065352;28;20262;-65
2021/05/08 05:37:35;;;;;;;9.67;5.67;;;8.60;99.90;;;;;;5069163;28;20207;-64
2021/05/08 05:40:05;;;;;;;8.70;6.53;;;8.70;99.90;;;;;;5067323;28;20188;-64
2021/05/08 05:42:33;;;;;;;14.00;5.73;;;8.80;99.90;;;;;;5058134;28;20220;-65
2021/05/08 05:45:00;;;;;;;8.20;5.87;;;8.80;99.90;;;;;;5070347;28;20840;-64
2021/05/08 05:47:31;;;;;;;12.07;5.67;;;8.80;99.90;;;;;;5067416;28;20596;-65
2021/05/08 05:50:00;;;;;;;7.53;5.30;;;8.90;99.90;;;;;;5068419;28;20307;-65
2021/05/08 05:52:28;;;;;;;9.60;6.00;;;8.90;99.90;;;;;;5058301;28;20203;-64
2021/05/08 05:54:55;;;;;;;13.50;5.83;;;8.90;99.90;;;;;;5078649;28;20191;-65
2021/05/08 05:57:23;;;;;;;10.00;5.67;;;9.00;99.90;;;;;;5065407;28;20281;-64
2021/05/08 05:59:53;;;;;;;9.23;5.67;;;9.10;99.90;;;;;;5063268;28;20197;-65
2021/05/08 06:02:21;;;;;;;7.57;5.17;;;9.20;99.90;;;;;;5062883;28;20925;-65
2021/05/08 06:04:48;;;;;;;8.17;5.30;;;9.30;99.90;;;;;;5068304;28;20208;-65
2021/05/08 06:07:15;;;;;;;9.27;5.20;;;9.30;99.90;;;;;;5065479;28;20275;-65
2021/05/08 06:09:43;;;;;;;9.47;5.03;;;9.40;99.90;;;;;;5067901;28;20211;-65
2021/05/08 06:12:11;;;;;;;7.13;5.20;;;9.40;99.90;;;;;;5063549;28;20686;-65
2021/05/08 06:14:39;;;;;;;8.73;5.00;;;9.40;99.90;;;;;;5068756;28;20661;-64
2021/05/08 06:17:06;;;;;;;5.97;4.97;;;9.40;99.90;;;;;;5066596;28;20284;-65
2021/05/08 06:19:34;;;;;;;6.07;4.70;;;9.40;99.90;;;;;;5065890;28;20198;-65
2021/05/08 06:22:01;;;;;;;7.13;5.30;;;9.40;99.90;;;;;;5068963;28;20196;-65
2021/05/08 06:24:34;;;;;;;6.53;4.97;;;9.50;99.90;;;;;;5066512;28;20295;-65
2021/05/08 06:27:01;;;;;;;8.17;5.33;;;9.50;99.90;;;;;;5050594;28;20200;-65
2021/05/08 06:29:29;;;;;;;6.80;4.70;;;9.60;99.90;;;;;;5066506;28;20620;-65
2021/05/08 06:31:57;;;;;;;6.60;4.90;;;9.60;99.90;;;;;;5068114;28;20192;-65
2021/05/08 06:34:27;;;;;;;8.10;4.90;;;9.70;99.90;;;;;;5067331;28;20745;-65
2021/05/08 06:36:55;;;;;;;5.27;4.77;;;9.70;99.90;;;;;;5064930;28;20231;-65
2021/05/08 06:39:22;;;;;;;6.33;5.30;;;9.70;99.90;;;;;;5065765;28;20192;-64
2021/05/08 06:41:50;;;;;;;8.10;4.80;;;9.80;99.90;;;;;;5067620;28;20663;-65
2021/05/08 06:44:17;;;;;;;8.67;5.10;;;9.80;99.90;;;;;;5063913;28;20247;-64
2021/05/08 06:46:45;;;;;;;10.57;6.50;;;9.80;99.90;;;;;;5067420;28;20249;-65
2021/05/08 06:49:13;;;;;;;13.30;6.50;;;9.80;99.90;;;;;;5068716;28;20221;-65
2021/05/08 06:51:40;;;;;;;12.37;6.07;;;9.80;99.90;;;;;;5067859;28;20216;-65
2021/05/08 06:54:08;;;;;;;17.70;7.57;;;9.80;99.90;;;;;;5068608;28;20287;-65
2021/05/08 06:56:36;;;;;;;14.90;6.10;;;9.90;99.90;;;;;;5068604;28;20679;-65
2021/05/08 06:59:03;;;;;;;10.10;5.83;;;9.90;99.90;;;;;;5069404;28;20206;-65
2021/05/08 07:01:31;;;;;;;5.50;4.60;;;9.90;99.90;;;;;;5082926;28;20226;-65
2021/05/08 07:03:58;;;;;;;7.90;4.80;;;9.90;99.90;;;;;;5089391;28;20249;-65
2021/05/08 07:06:30;;;;;;;10.87;4.57;;;10.00;99.90;;;;;;5077444;28;20192;-65
2021/05/08 07:08:57;;;;;;;9.43;4.50;;;10.00;99.90;;;;;;5068748;28;20234;-65
2021/05/08 07:11:25;;;;;;;5.03;4.40;;;10.10;99.90;;;;;;5084194;28;20666;-64
2021/05/08 07:13:53;;;;;;;5.87;4.50;;;10.10;99.90;;;;;;5085140;28;20187;-65
2021/05/08 07:16:20;;;;;;;8.17;4.30;;;10.10;99.90;;;;;;5068938;28;20188;-64
2021/05/08 07:18:47;;;;;;;8.07;4.43;;;10.10;99.90;;;;;;5066707;28;20228;-65
2021/05/08 07:21:15;;;;;;;9.47;4.53;;;10.20;99.90;;;;;;5062452;28;20198;-65
2021/05/08 07:23:43;;;;;;;13.33;5.03;;;10.20;99.90;;;;;;5062961;28;20247;-65
2021/05/08 07:26:10;;;;;;;6.53;4.37;;;10.20;99.90;;;;;;5062617;28;20211;-65
2021/05/08 07:28:38;;;;;;;6.87;4.80;;;10.10;99.90;;;;;;5067326;28;20200;-64
2021/05/08 07:31:05;;;;;;;5.27;4.70;;;10.00;99.90;;;;;;5066297;28;20283;-64
2021/05/08 07:33:32;;;;;;;5.10;4.23;;;10.10;99.90;;;;;;5063365;28;20184;-64
2021/05/08 07:36:00;;;;;;;7.27;4.30;;;10.20;99.90;;;;;;5067524;28;20540;-64
2021/05/08 07:38:27;;;;;;;4.33;3.93;;;10.30;99.90;;;;;;5064110;28;20282;-64
2021/05/08 07:40:55;;;;;;;4.53;3.97;;;10.30;99.90;;;;;;5066783;28;20219;-65
2021/05/08 07:43:23;;;;;;;7.83;4.03;;;10.50;99.90;;;;;;5065846;28;20726;-65
2021/05/08 07:45:50;;;;;;;7.50;4.10;;;10.60;99.90;;;;;;5066498;28;20207;-64
2021/05/08 07:48:18;;;;;;;5.07;4.20;;;10.60;99.90;;;;;;5060891;28;20285;-65
2021/05/08 07:50:45;;;;;;;5.20;4.07;;;10.80;99.90;;;;;;5058373;28;20636;-65
2021/05/08 07:53:12;;;;;;;8.63;4.30;;;10.70;99.90;;;;;;5065703;28;20188;-64
2021/05/08 07:55:40;;;;;;;6.13;4.10;;;10.80;99.90;;;;;;5069179;28;20222;-64
2021/05/08 07:58:08;;;;;;;9.43;4.13;;;10.80;99.90;;;;;;5065197;28;20257;-65
2021/05/08 08:00:36;;;;;;;4.00;3.70;;;10.80;99.90;;;;;;5063958;28;20192;-65
2021/05/08 08:03:04;;;;;;;4.30;4.00;;;10.80;99.90;;;;;;5060023;28;20197;-66
2021/05/08 08:05:48;;;;;;;4.43;4.13;;;10.80;99.90;;;;;;5064068;28;20404;-65
2021/05/08 08:08:15;;;;;;;4.43;4.03;;;10.80;99.90;;;;;;5065505;28;20216;-66
2021/05/08 08:10:42;;;;;;;4.50;4.10;;;10.80;99.90;;;;;;5064353;28;20199;-66
2021/05/08 08:13:10;;;;;;;4.57;4.17;;;10.90;99.90;;;;;;5059594;28;20197;-65
2021/05/08 08:15:38;;;;;;;6.50;4.20;;;10.90;99.90;;;;;;5065070;28;20220;-66
2021/05/08 08:18:09;;;;;;;6.97;4.07;;;10.90;99.90;;;;;;5058317;28;20239;-65
2021/05/08 08:20:36;;;;;;;5.53;3.93;;;11.00;99.90;;;;;;5060912;28;20192;-65
2021/05/08 08:23:04;;;;;;;4.73;4.17;;;10.90;99.90;;;;;;5066244;28;20198;-66
2021/05/08 08:25:31;;;;;;;6.10;4.00;;;10.90;99.90;;;;;;5062498;28;20196;-65
2021/05/08 08:27:59;;;;;;;4.03;3.70;;;10.90;99.90;;;;;;5067248;28;20360;-65
2021/05/08 08:30:27;;;;;;;4.77;4.30;;;11.00;99.90;;;;;;5060603;28;20191;-65
2021/05/08 08:32:55;;;;;;;4.50;4.10;;;11.10;99.90;;;;;;5066778;28;20249;-65
2021/05/08 08:35:22;;;;;;;6.30;3.73;;;11.20;99.90;;;;;;5068319;28;20186;-65
2021/05/08 08:37:53;;;;;;;5.07;4.40;;;11.20;99.90;;;;;;5070877;28;20196;-65
2021/05/08 08:40:21;;;;;;;7.67;4.27;;;11.30;99.90;;;;;;5074243;28;20698;-64
2021/05/08 08:42:49;;;;;;;5.00;4.40;;;11.40;99.90;;;;;;5064296;28;20288;-65
2021/05/08 08:45:18;;;;;;;4.10;3.80;;;11.30;99.90;;;;;;5062059;28;20200;-64
2021/05/08 08:47:49;;;;;;;5.90;4.00;;;11.30;99.90;;;;;;5052145;28;20273;-64
2021/05/08 08:50:25;;;;;;;4.20;3.90;;;11.30;99.90;;;;;;5050415;28;20608;-64
2021/05/08 08:52:52;;;;;;;4.60;4.20;;;11.40;99.90;;;;;;5050780;28;20199;-64
2021/05/08 08:55:22;;;;;;;5.80;4.30;;;11.60;99.90;;;;;;5057651;28;20299;-65
2021/05/08 08:57:52;;;;;;;5.00;4.50;;;11.50;99.90;;;;;;5071932;28;20184;-65
2021/05/08 09:00:23;;;;;;;3.97;3.77;;;11.40;99.90;;;;;;5059026;28;20286;-64
2021/05/08 09:02:52;;;;;;;5.73;4.30;;;11.20;99.90;;;;;;5066729;28;20211;-64
2021/05/08 09:05:23;;;;;;;4.77;4.07;;;11.10;99.90;;;;;;5066627;28;20215;-64
2021/05/08 09:07:51;;;;;;;5.43;4.50;;;11.00;99.90;;;;;;5059061;28;20566;-64
2021/05/08 09:10:24;;;;;;;4.57;4.13;;;11.00;99.90;;;;;;5061031;28;20285;-64
2021/05/08 09:12:54;;;;;;;4.70;4.40;;;10.80;99.90;;;;;;5073370;28;20207;-64
2021/05/08 09:15:37;;;;;;;6.10;3.93;;;10.70;99.90;;;;;;5058208;28;20192;-64
2021/05/08 09:18:06;;;;;;;4.70;4.30;;;10.70;99.90;;;;;;5061991;28;20267;-64
2021/05/08 09:20:42;;;;;;;4.20;3.93;;;10.70;99.90;;;;;;5059335;28;20212;-63
2021/05/08 09:23:21;;;;;;;5.93;4.90;;;10.60;99.90;;;;;;5065649;28;20199;-64
2021/05/08 09:25:59;;;;;;;5.00;4.60;;;10.60;99.90;;;;;;5061966;28;20621;-63
2021/05/08 09:28:29;;;;;;;5.67;4.90;;;10.50;99.90;;;;;;5065501;28;20192;-62
2021/05/08 09:30:57;;;;;;;5.53;4.67;;;10.50;99.90;;;;;;5064589;28;20199;-62
2021/05/08 09:33:27;;;;;;;6.07;5.00;;;10.50;99.90;;;;;;5068257;28;20651;-62
2021/05/08 09:36:10;;;;;;;5.20;4.80;;;10.50;99.90;;;;;;5067500;28;20239;-63
2021/05/08 09:38:41;;;;;;;6.67;5.60;;;10.50;99.90;;;;;;5040398;28;20200;-62
2021/05/08 09:41:10;;;;;;;9.53;5.67;;;10.50;99.90;;;;;;5065021;28;20242;-63
2021/05/08 09:43:41;;;;;;;5.53;5.03;;;10.50;99.90;;;;;;5070511;28;20238;-63
2021/05/08 09:46:22;;;;;;;7.30;5.37;;;10.50;99.90;;;;;;5070777;28;20690;-63
2021/05/08 09:49:09;;;;;;;7.97;5.93;;;10.60;99.90;;;;;;5067797;28;20196;-63
2021/05/08 09:51:36;;;;;;;5.83;5.30;;;10.80;99.90;;;;;;5067229;28;20753;-63
2021/05/08 09:54:15;;;;;;;5.83;5.43;;;10.80;99.90;;;;;;5062438;28;20196;-63
2021/05/08 09:56:44;;;;;;;6.47;5.87;;;10.80;99.90;;;;;;5059935;28;20204;-62
2021/05/08 09:59:30;;;;;;;6.00;5.33;;;10.80;99.90;;;;;;5059544;28;20228;-63
2021/05/08 10:02:16;;;;;;;7.80;5.80;;;10.80;99.90;;;;;;5062091;28;20655;-63
2021/05/08 10:05:12;;;;;;;8.30;6.10;;;10.90;99.90;;;;;;5061003;28;20204;-63
2021/05/08 10:07:39;;;;;;;8.03;6.43;;;10.90;99.90;;;;;;5061444;28;20196;-63
2021/05/08 10:10:07;;;;;;;8.87;5.90;;;10.90;99.90;;;;;;5064581;28;20224;-63
2021/05/08 10:12:35;;;;;;;8.07;6.10;;;11.00;99.90;;;;;;5070527;28;20204;-63
2021/05/08 10:15:04;;;;;;;7.63;6.53;;;11.00;99.90;;;;;;5065346;28;20608;-63
2021/05/08 10:17:32;;;;;;;6.60;5.90;;;11.00;99.90;;;;;;5062983;28;20709;-62
2021/05/08 10:20:03;;;;;;;7.03;6.30;;;10.90;99.90;;;;;;5064997;28;20195;-63
2021/05/08 10:22:36;;;;;;;10.60;7.27;;;11.00;99.90;;;;;;5063288;28;20196;-63
2021/05/08 10:25:05;;;;;;;7.47;6.67;;;11.00;99.90;;;;;;5062915;28;20216;-63
2021/05/08 10:27:33;;;;;;;10.63;7.03;;;11.00;99.90;;;;;;5061485;28;20253;-63
2021/05/08 10:30:00;;;;;;;6.50;5.90;;;11.00;99.90;;;;;;5062162;28;20203;-63
2021/05/08 10:32:29;;;;;;;10.23;6.47;;;11.00;99.90;;;;;;5069785;28;20200;-63
2021/05/08 10:35:02;;;;;;;7.03;6.40;;;10.90;99.90;;;;;;5065486;28;20199;-63
2021/05/08 10:37:30;;;;;;;10.40;6.77;;;10.80;99.90;;;;;;5059353;28;20285;-62
2021/05/08 10:40:13;;;;;;;7.53;6.83;;;10.80;99.90;;;;;;5059945;28;20250;-63
2021/05/08 10:42:42;;;;;;;9.50;7.10;;;10.80;99.90;;;;;;5065776;28;20295;-63
2021/05/08 10:45:33;;;;;;;7.87;7.10;;;10.80;99.90;;;;;;5064841;28;20248;-63
2021/05/08 10:48:10;;;;;;;7.57;6.60;;;10.80;99.90;;;;;;5042971;28;20207;-63
2021/05/08 10:50:42;;;;;;;7.97;6.97;;;10.90;99.90;;;;;;5065082;28;20282;-63
2021/05/08 10:53:11;;;;;;;8.23;7.53;;;11.00;99.90;;;;;;5073699;28;20199;-63
2021/05/08 10:55:47;;;;;;;8.57;6.80;;;11.00;99.90;;;;;;5057019;28;20203;-63
2021/05/08 10:58:35;;;;;;;8.43;7.53;;;11.00;99.90;;;;;;5055657;28;20662;-63
2021/05/08 11:01:07;;;;;;;7.67;6.87;;;11.10;99.90;;;;;;5057554;28;20192;-63
2021/05/08 11:04:03;;;;;;;10.03;6.67;;;11.10;99.90;;;;;;5056017;28;20208;-63
2021/05/08 11:06:31;;;;;;;9.17;7.37;;;11.10;99.90;;;;;;5051708;28;20240;-63
2021/05/08 11:08:59;;;;;;;8.60;6.90;;;11.10;99.90;;;;;;5055913;28;20746;-63
2021/05/08 11:11:46;;;;;;;6.93;6.20;;;11.20;99.90;;;;;;5059739;28;20200;-64
2021/05/08 11:14:13;;;;;;;7.40;6.63;;;11.30;99.90;;;;;;5055104;28;20200;-64
2021/05/08 11:17:02;;;;;;;7.10;6.27;;;11.50;99.90;;;;;;5061518;28;20203;-64
2021/05/08 11:19:29;;;;;;;6.97;6.27;;;11.60;99.90;;;;;;5054795;28;20200;-63
2021/05/08 11:22:05;;;;;;;6.27;5.47;;;11.70;99.90;;;;;;5058806;28;20827;-64
2021/05/08 11:24:40;;;;;;;6.00;5.50;;;11.90;99.90;;;;;;5061330;28;20223;-63
2021/05/08 11:27:26;;;;;;;7.00;5.87;;;12.20;99.90;;;;;;5063753;28;20694;-64
2021/05/08 11:30:04;;;;;;;5.67;5.13;;;12.60;99.90;;;;;;5063934;28;20222;-64
2021/05/08 11:32:33;;;;;;;5.83;5.33;;;12.80;99.90;;;;;;5063247;28;20655;-63
2021/05/08 11:35:00;;;;;;;6.13;4.90;;;13.10;99.90;;;;;;5062233;28;20599;-64
2021/05/08 11:37:28;;;;;;;7.30;5.23;;;13.30;99.90;;;;;;5064617;28;20200;-64
2021/05/08 11:39:56;;;;;;;5.43;4.90;;;13.40;99.90;;;;;;5062414;28;20249;-64
2021/05/08 11:42:26;;;;;;;8.63;5.40;;;13.40;99.90;;;;;;5064591;28;20196;-64
2021/05/08 11:44:55;;;;;;;5.87;5.37;;;13.30;99.90;;;;;;5065315;28;20212;-65
2021/05/08 11:47:30;;;;;;;6.27;5.37;;;13.30;99.90;;;;;;5064779;28;20192;-64
2021/05/08 11:50:02;;;;;;;7.10;4.97;;;13.40;99.90;;;;;;5065131;28;20203;-64
2021/05/08 11:52:35;;;;;;;9.17;5.23;;;13.30;99.90;;;;;;5065837;28;20270;-65
2021/05/08 11:55:05;;;;;;;9.57;6.03;;;13.40;99.90;;;;;;5066237;28;20199;-65
2021/05/08 11:57:35;;;;;;;6.70;6.10;;;13.40;99.90;;;;;;5063661;28;20253;-65
2021/05/08 12:00:14;;;;;;;10.97;5.93;;;13.50;99.90;;;;;;5065451;28;20291;-65
2021/05/08 12:02:42;;;;;;;8.73;5.80;;;13.60;99.90;;;;;;5066434;28;20276;-64
2021/05/08 12:05:10;;;;;;;6.03;5.43;;;13.70;99.90;;;;;;5063391;28;20204;-65
2021/05/08 12:07:41;;;;;;;7.73;5.93;;;13.80;99.90;;;;;;5060366;28;20239;-65
2021/05/08 12:10:13;;;;;;;7.83;5.33;;;13.90;99.90;;;;;;5063983;28;20188;-65
2021/05/08 12:12:49;;;;;;;7.97;5.87;;;13.80;99.90;;;;;;5066918;28;20216;-65
2021/05/08 12:15:21;;;;;;;5.80;5.23;;;13.90;99.90;;;;;;5067426;28;20231;-65
2021/05/08 12:17:50;;;;;;;6.47;5.67;;;13.90;99.90;;;;;;5069082;28;20232;-65
2021/05/08 12:20:18;;;;;;;5.73;5.10;;;13.90;99.90;;;;;;5066171;28;20192;-65
2021/05/08 12:22:47;;;;;;;5.17;4.70;;;13.90;99.90;;;;;;5053039;28;20763;-65
2021/05/08 12:25:16;;;;;;;6.43;5.20;;;13.90;99.90;;;;;;5061869;28;20222;-65
2021/05/08 12:27:43;;;;;;;5.93;5.37;;;13.90;99.90;;;;;;5064704;28;20642;-65
2021/05/08 12:30:13;;;;;;;6.10;5.17;;;13.90;99.90;;;;;;5066216;28;20251;-65
2021/05/08 12:32:52;;;;;;;5.57;4.77;;;14.00;99.90;;;;;;5059639;28;20258;-65
2021/05/08 12:35:20;;;;;;;7.10;5.47;;;14.10;99.90;;;;;;5064894;28;20191;-65
2021/05/08 12:37:48;;;;;;;6.97;5.30;;;14.20;99.90;;;;;;5061151;28;20881;-65
2021/05/08 12:40:16;;;;;;;5.90;4.97;;;14.20;99.90;;;;;;5062303;28;20204;-65
2021/05/08 12:42:45;;;;;;;6.40;4.90;;;14.20;99.90;;;;;;5066241;28;20261;-65
2021/05/08 12:45:14;;;;;;;6.70;4.83;;;14.30;99.90;;;;;;5062630;28;20266;-65
2021/05/08 12:47:47;;;;;;;5.43;4.90;;;14.40;99.90;;;;;;5060293;28;20239;-65
2021/05/08 12:50:17;;;;;;;5.00;4.60;;;14.50;99.90;;;;;;5062712;28;20647;-66
2021/05/08 12:52:56;;;;;;;7.17;4.80;;;14.70;99.90;;;;;;5065265;28;20257;-63
2021/05/08 12:55:25;;;;;;;5.20;4.70;;;14.70;99.90;;;;;;5069790;28;20277;-65
2021/05/08 12:57:53;;;;;;;6.27;5.00;;;14.70;99.90;;;;;;5066737;28;20196;-65
2021/05/08 13:00:21;;;;;;;5.80;5.20;;;14.80;99.90;;;;;;5062028;28;20199;-65